createdAt,value
2024-01-20T00:00:00.763Z,19.20
2024-01-20T00:02:30.503Z,18.80
2024-01-20T00:04:57.450Z,18.30
2024-01-20T00:07:24.752Z,18.30
2024-01-20T00:09:52.692Z,16.47
2024-01-20T00:12:20.298Z,19.67
2024-01-20T00:14:47.398Z,19.17
2024-01-20T00:17:23.978Z,18.87
2024-01-20T00:19:58.261Z,18.77
2024-01-20T00:22:31.360Z,15.63
2024-01-20T00:25:03.507Z,15.97
2024-01-20T00:27:32.043Z,17.70
2024-01-20T00:30:00.162Z,18.67
2024-01-20T00:32:27.514Z,16.90
2024-01-20T00:35:06.156Z,18.60
2024-01-20T00:37:40.149Z,17.03
2024-01-20T00:40:08.436Z,19.27
2024-01-20T00:42:36.137Z,16.37
2024-01-20T00:45:04.501Z,18.13
2024-01-20T00:47:35.858Z,17.50
2024-01-20T00:50:08.725Z,17.03
2024-01-20T00:52:36.218Z,17.37
2024-01-20T00:55:03.825Z,16.40
2024-01-20T00:57:36.030Z,17.63
2024-01-20T01:00:08.941Z,17.80
2024-01-20T01:02:40.110Z,16.60
2024-01-20T01:05:08.886Z,16.57
2024-01-20T01:07:39.647Z,17.47
2024-01-20T01:10:07.992Z,18.40
2024-01-20T01:12:36.219Z,17.70
2024-01-20T01:15:03.566Z,17.57
2024-01-20T01:17:31.016Z,19.73
2024-01-20T01:20:01.256Z,19.63
2024-01-20T01:22:28.438Z,17.13
2024-01-20T01:24:55.467Z,17.87
2024-01-20T01:27:22.757Z,17.33
2024-01-20T01:29:49.720Z,20.10
2024-01-20T01:32:23.354Z,17.10
2024-01-20T01:34:50.488Z,19.13
2024-01-20T01:37:17.497Z,18.73
2024-01-20T01:39:44.503Z,17.17
2024-01-20T01:42:12.413Z,17.20
2024-01-20T01:44:39.298Z,18.57
2024-01-20T01:47:06.647Z,18.80
2024-01-20T01:49:33.832Z,16.83
2024-01-20T01:52:07.485Z,17.70
2024-01-20T01:54:37.788Z,18.00
2024-01-20T01:57:07.081Z,18.40
2024-01-20T01:59:35.614Z,17.70
2024-01-20T02:02:05.660Z,16.77
2024-01-20T02:04:35.728Z,17.57
2024-01-20T02:07:05.902Z,18.53
2024-01-20T02:09:36.860Z,18.13
2024-01-20T02:12:05.060Z,20.23
2024-01-20T02:14:35.546Z,18.30
2024-01-20T02:17:09.084Z,18.50
2024-01-20T02:19:42.025Z,18.57
2024-01-20T02:22:18.498Z,18.53
2024-01-20T02:24:50.730Z,18.60
2024-01-20T02:27:19.253Z,17.47
2024-01-20T02:29:49.606Z,20.73
2024-01-20T02:32:19.478Z,19.07
2024-01-20T02:34:47.613Z,17.53
2024-01-20T02:37:17.246Z,18.33
2024-01-20T02:39:44.824Z,18.13
2024-01-20T02:42:12.526Z,19.00
2024-01-20T02:44:43.237Z,17.40
2024-01-20T02:47:10.352Z,18.23
2024-01-20T02:49:37.384Z,19.23
2024-01-20T02:52:04.657Z,18.60
2024-01-20T02:54:33.102Z,17.47
2024-01-20T02:57:00.120Z,19.03
2024-01-20T02:59:27.410Z,19.70
2024-01-20T03:01:54.601Z,18.43
2024-01-20T03:04:21.980Z,19.10
2024-01-20T03:06:48.991Z,18.60
2024-01-20T03:09:20.109Z,19.50
2024-01-20T03:11:47.135Z,18.30
2024-01-20T03:14:15.544Z,20.87
2024-01-20T03:16:45.373Z,19.77
2024-01-20T03:19:13.637Z,19.23
2024-01-20T03:21:42.080Z,18.77
2024-01-20T03:24:11.215Z,21.33
2024-01-20T03:26:38.747Z,19.97
2024-01-20T03:29:05.854Z,18.73
2024-01-20T03:31:32.787Z,19.27
2024-01-20T03:33:59.918Z,19.43
2024-01-20T03:36:27.038Z,19.27
2024-01-20T03:38:53.980Z,18.10
2024-01-20T03:41:23.307Z,22.37
2024-01-20T03:43:50.397Z,18.63
2024-01-20T03:46:19.486Z,18.50
2024-01-20T03:48:47.041Z,19.40
2024-01-20T03:51:15.390Z,19.00
2024-01-20T03:53:45.196Z,18.50
2024-01-20T03:56:12.122Z,17.40
2024-01-20T03:58:40.288Z,18.57
2024-01-20T04:01:07.204Z,17.77
2024-01-20T04:03:35.341Z,17.20
2024-01-20T04:06:05.114Z,16.80
2024-01-20T04:08:32.426Z,18.63
2024-01-20T04:10:59.381Z,17.53
2024-01-20T04:13:26.647Z,16.87
2024-01-20T04:15:54.916Z,18.27
2024-01-20T04:18:24.318Z,18.00
2024-01-20T04:20:51.328Z,17.00
2024-01-20T04:23:18.539Z,16.97
2024-01-20T04:25:45.482Z,15.67
2024-01-20T04:28:13.230Z,16.83
2024-01-20T04:30:43.393Z,16.83
2024-01-20T04:33:10.794Z,15.37
2024-01-20T04:35:37.909Z,15.57
2024-01-20T04:38:05.439Z,16.00
2024-01-20T04:40:35.234Z,15.60
2024-01-20T04:43:02.284Z,15.43
2024-01-20T04:45:30.710Z,14.63
2024-01-20T04:47:58.428Z,15.03
2024-01-20T04:50:25.496Z,14.43
2024-01-20T04:52:52.719Z,14.63
2024-01-20T04:55:19.700Z,15.57
2024-01-20T04:57:46.670Z,14.77
2024-01-20T05:00:17.472Z,14.50
2024-01-20T05:02:47.509Z,13.73
2024-01-20T05:05:14.849Z,13.93
2024-01-20T05:07:41.727Z,15.10
2024-01-20T05:10:09.018Z,15.83
2024-01-20T05:12:36.038Z,14.77
2024-01-20T05:15:08.925Z,15.40
2024-01-20T05:17:35.910Z,14.43
2024-01-20T05:20:05.618Z,13.37
2024-01-20T05:22:33.362Z,13.70
2024-01-20T05:25:00.281Z,12.90
2024-01-20T05:27:27.808Z,14.40
2024-01-20T05:29:54.844Z,14.40
2024-01-20T05:32:21.846Z,12.43
2024-01-20T05:34:51.720Z,13.47
2024-01-20T05:37:21.231Z,14.03
2024-01-20T05:39:49.536Z,14.40
2024-01-20T05:42:19.394Z,16.03
2024-01-20T05:44:47.629Z,14.27
2024-01-20T05:47:14.915Z,14.37
2024-01-20T05:49:41.925Z,13.17
2024-01-20T05:52:11.626Z,14.50
2024-01-20T05:54:41.637Z,14.73
2024-01-20T05:57:12.035Z,13.97
2024-01-20T05:59:39.087Z,14.90
2024-01-20T06:02:06.827Z,14.37
2024-01-20T06:04:33.746Z,14.60
2024-01-20T06:07:03.623Z,14.83
2024-01-20T06:09:33.633Z,14.00
2024-01-20T06:12:00.633Z,15.93
2024-01-20T06:14:27.585Z,14.10
2024-01-20T06:16:54.643Z,15.00
2024-01-20T06:19:21.831Z,16.03
2024-01-20T06:21:51.720Z,15.10
2024-01-20T06:24:21.686Z,15.73
2024-01-20T06:26:50.017Z,16.33
2024-01-20T06:29:19.763Z,21.27
2024-01-20T06:31:46.763Z,18.90
2024-01-20T06:34:13.809Z,16.53
2024-01-20T06:36:46.076Z,17.67
2024-01-20T06:39:14.127Z,15.13
2024-01-20T06:41:46.601Z,15.03
2024-01-20T06:44:14.441Z,14.67
2024-01-20T06:46:41.427Z,14.67
2024-01-20T06:49:08.932Z,13.87
2024-01-20T06:51:38.623Z,14.13
2024-01-20T06:54:05.734Z,13.40
2024-01-20T06:56:32.799Z,14.17
2024-01-20T06:59:00.371Z,14.57
2024-01-20T07:01:28.496Z,13.10
2024-01-20T07:03:55.661Z,15.17
2024-01-20T07:06:25.010Z,13.73
2024-01-20T07:08:56.373Z,13.17
2024-01-20T07:11:27.755Z,13.97
2024-01-20T07:13:55.244Z,15.07
2024-01-20T07:16:23.765Z,13.70
2024-01-20T07:18:53.079Z,13.13
2024-01-20T07:21:23.666Z,12.40
2024-01-20T07:23:50.683Z,11.80
2024-01-20T07:26:18.302Z,13.20
2024-01-20T07:28:47.873Z,12.27
2024-01-20T07:31:17.748Z,14.17
2024-01-20T07:33:45.402Z,13.63
2024-01-20T07:36:12.806Z,12.13
2024-01-20T07:38:42.601Z,12.20
2024-01-20T07:41:09.663Z,11.90
2024-01-20T07:43:36.594Z,11.10
2024-01-20T07:46:03.772Z,12.37
2024-01-20T07:48:31.009Z,11.57
2024-01-20T07:50:58.025Z,12.07
2024-01-20T07:53:26.207Z,12.17
2024-01-20T07:55:53.139Z,12.00
2024-01-20T07:58:21.810Z,11.00
2024-01-20T08:00:49.607Z,11.20
2024-01-20T08:03:17.356Z,11.87
2024-01-20T08:05:47.178Z,10.80
2024-01-20T08:08:19.801Z,10.47
2024-01-20T08:10:49.843Z,10.40
2024-01-20T08:13:17.000Z,11.27
2024-01-20T08:15:43.960Z,10.67
2024-01-20T08:18:11.044Z,9.80
2024-01-20T08:20:38.053Z,12.83
2024-01-20T08:23:08.110Z,11.43
2024-01-20T08:25:36.377Z,9.40
2024-01-20T08:28:04.021Z,8.03
2024-01-20T08:30:34.290Z,10.50
2024-01-20T08:33:04.263Z,8.30
2024-01-20T08:35:32.703Z,10.00
2024-01-20T08:37:59.710Z,9.77
2024-01-20T08:40:26.878Z,10.53
2024-01-20T08:42:53.943Z,9.47
2024-01-20T08:45:27.658Z,9.80
2024-01-20T08:47:57.357Z,11.20
2024-01-20T08:50:26.933Z,10.27
2024-01-20T08:52:57.118Z,9.73
2024-01-20T08:55:24.382Z,10.33
2024-01-20T08:57:54.518Z,8.37
2024-01-20T09:00:21.646Z,10.00
2024-01-20T09:02:48.959Z,8.80
2024-01-20T09:05:19.278Z,11.27
2024-01-20T09:07:46.552Z,9.70
2024-01-20T09:10:16.517Z,9.47
2024-01-20T09:12:43.585Z,12.03
2024-01-20T09:15:12.140Z,21.40
2024-01-20T09:17:42.104Z,14.27
2024-01-20T09:20:11.620Z,13.97
2024-01-20T09:22:38.699Z,11.47
2024-01-20T09:25:06.947Z,9.87
2024-01-20T09:27:33.958Z,12.17
2024-01-20T09:30:01.210Z,10.10
2024-01-20T09:32:31.529Z,11.57
2024-01-20T09:34:59.542Z,10.07
2024-01-20T09:37:26.625Z,19.50
2024-01-20T09:39:54.626Z,10.73
2024-01-20T09:42:21.690Z,10.67
2024-01-20T09:44:52.815Z,10.20
2024-01-20T09:47:19.938Z,10.60
2024-01-20T09:49:47.159Z,13.37
2024-01-20T09:52:39.466Z,9.93
2024-01-20T09:55:19.837Z,10.07
2024-01-20T09:57:50.086Z,9.00
2024-01-20T10:00:23.506Z,10.30
2024-01-20T10:02:50.905Z,10.73
2024-01-20T10:05:17.966Z,8.23
2024-01-20T10:07:48.251Z,8.07
2024-01-20T10:10:22.804Z,8.60
2024-01-20T10:12:54.753Z,9.97
2024-01-20T10:15:23.400Z,9.60
2024-01-20T10:17:50.736Z,9.27
2024-01-20T10:20:32.516Z,11.83
2024-01-20T10:23:02.334Z,8.60
2024-01-20T10:25:29.505Z,9.17
2024-01-20T10:27:59.963Z,9.83
2024-01-20T10:30:27.358Z,7.40
2024-01-20T10:33:04.443Z,7.90
2024-01-20T10:35:36.915Z,10.73
2024-01-20T10:38:10.247Z,9.30
2024-01-20T10:40:41.462Z,8.70
2024-01-20T10:43:17.483Z,7.77
2024-01-20T10:46:03.427Z,10.47
2024-01-20T10:48:37.416Z,13.53
2024-01-20T10:51:10.235Z,11.03
2024-01-20T10:53:38.054Z,12.30
2024-01-20T10:56:09.703Z,12.50
2024-01-20T10:58:48.382Z,14.43
2024-01-20T11:01:19.287Z,10.30
2024-01-20T11:03:47.088Z,9.23
2024-01-20T11:06:25.577Z,9.60
2024-01-20T11:08:53.791Z,8.13
2024-01-20T11:11:26.977Z,14.17
2024-01-20T11:14:01.753Z,12.33
2024-01-20T11:16:34.147Z,8.20
2024-01-20T11:19:13.130Z,7.30
2024-01-20T11:21:40.629Z,8.83
2024-01-20T11:24:08.146Z,9.87
2024-01-20T11:26:36.821Z,8.13
2024-01-20T11:29:06.013Z,16.17
2024-01-20T11:31:33.934Z,11.50
2024-01-20T11:34:03.592Z,10.27
2024-01-20T11:36:31.689Z,10.87
2024-01-20T11:39:04.350Z,10.63
2024-01-20T11:41:33.942Z,8.00
2024-01-20T11:44:03.793Z,11.43
2024-01-20T11:46:33.230Z,8.47
2024-01-20T11:49:00.599Z,8.50
2024-01-20T11:51:27.616Z,10.33
2024-01-20T11:53:54.567Z,6.60
2024-01-20T11:56:24.911Z,7.93
2024-01-20T11:58:52.103Z,6.90
2024-01-20T12:01:19.279Z,6.93
2024-01-20T12:03:49.220Z,8.40
2024-01-20T12:06:17.829Z,8.00
2024-01-20T12:08:46.619Z,10.10
2024-01-20T12:11:24.212Z,7.43
2024-01-20T12:13:51.494Z,10.97
2024-01-20T12:16:21.055Z,8.67
2024-01-20T12:18:48.486Z,6.30
2024-01-20T12:21:15.556Z,6.07
2024-01-20T12:23:43.315Z,7.30
2024-01-20T12:26:17.891Z,6.93
2024-01-20T12:28:48.434Z,6.00
2024-01-20T12:31:21.585Z,5.97
2024-01-20T12:33:50.827Z,5.77
2024-01-20T12:36:21.021Z,7.30
2024-01-20T12:38:51.256Z,6.93
2024-01-20T12:41:21.242Z,5.87
2024-01-20T12:43:50.377Z,5.40
2024-01-20T12:46:18.682Z,5.47
2024-01-20T12:48:45.979Z,5.03
2024-01-20T12:51:13.421Z,5.37
2024-01-20T12:53:40.417Z,5.27
2024-01-20T12:56:07.863Z,8.00
2024-01-20T12:58:35.117Z,7.47
2024-01-20T13:01:02.335Z,6.63
2024-01-20T13:03:29.787Z,6.37
2024-01-20T13:05:56.819Z,6.57
2024-01-20T13:08:25.350Z,5.43
2024-01-20T13:10:52.598Z,5.57
2024-01-20T13:13:20.291Z,5.37
2024-01-20T13:15:47.604Z,6.73
2024-01-20T13:18:17.450Z,7.43
2024-01-20T13:20:44.510Z,6.20
2024-01-20T13:23:14.684Z,6.20
2024-01-20T13:25:44.760Z,7.73
2024-01-20T13:28:14.728Z,7.40
2024-01-20T13:30:46.019Z,6.17
2024-01-20T13:33:16.861Z,5.53
2024-01-20T13:35:43.844Z,5.27
2024-01-20T13:38:13.841Z,5.57
2024-01-20T13:40:44.023Z,7.93
2024-01-20T13:43:14.013Z,5.73
2024-01-20T13:45:41.011Z,7.77
2024-01-20T13:48:08.448Z,6.17
2024-01-20T13:50:36.467Z,5.30
2024-01-20T13:53:06.268Z,5.07
2024-01-20T13:55:33.934Z,6.47
2024-01-20T13:58:00.867Z,5.23
2024-01-20T14:00:35.024Z,4.50
2024-01-20T14:03:02.080Z,4.50
2024-01-20T14:05:29.288Z,5.43
2024-01-20T14:07:56.362Z,4.20
2024-01-20T14:10:26.384Z,5.23
2024-01-20T14:12:57.522Z,8.90
2024-01-20T14:15:25.730Z,7.30
2024-01-20T14:17:55.708Z,5.47
2024-01-20T14:20:23.203Z,5.63
2024-01-20T14:22:54.269Z,6.07
2024-01-20T14:25:21.179Z,5.17
2024-01-20T14:27:50.837Z,4.80
2024-01-20T14:30:18.778Z,5.33
2024-01-20T14:32:51.880Z,6.00
2024-01-20T14:35:19.029Z,6.40
2024-01-20T14:37:50.222Z,5.53
2024-01-20T14:40:17.200Z,6.23
2024-01-20T14:42:47.165Z,6.27
2024-01-20T14:45:15.117Z,5.30
2024-01-20T14:47:45.246Z,4.67
2024-01-20T14:50:15.474Z,5.37
2024-01-20T14:52:43.664Z,8.30
2024-01-20T14:55:11.316Z,5.47
2024-01-20T14:57:38.372Z,4.83
2024-01-20T15:00:09.004Z,5.37
2024-01-20T15:02:39.229Z,4.17
2024-01-20T15:05:07.426Z,4.47
2024-01-20T15:07:35.086Z,6.10
2024-01-20T15:10:02.618Z,5.30
2024-01-20T15:12:29.920Z,6.00
2024-01-20T15:14:57.103Z,8.30
2024-01-20T15:17:26.914Z,4.53
2024-01-20T15:19:57.210Z,4.60
2024-01-20T15:22:24.636Z,5.10
2024-01-20T15:24:51.643Z,5.60
2024-01-20T15:27:19.071Z,4.17
2024-01-20T15:29:46.217Z,4.23
2024-01-20T15:32:13.466Z,5.27
2024-01-20T15:34:40.786Z,5.37
2024-01-20T15:37:08.179Z,4.87
2024-01-20T15:39:35.817Z,6.60
2024-01-20T15:42:03.297Z,6.57
2024-01-20T15:44:30.245Z,7.67
2024-01-20T15:46:57.166Z,7.07
2024-01-20T15:49:24.487Z,7.03
2024-01-20T15:51:51.920Z,4.93
2024-01-20T15:54:19.088Z,6.80
2024-01-20T15:56:49.092Z,5.00
2024-01-20T15:59:20.999Z,5.87
2024-01-20T16:01:51.065Z,6.83
2024-01-20T16:04:21.159Z,5.43
2024-01-20T16:06:48.732Z,5.73
2024-01-20T16:09:16.252Z,5.57
2024-01-20T16:11:44.753Z,6.50
2024-01-20T16:14:14.850Z,5.77
2024-01-20T16:16:42.097Z,5.97
2024-01-20T16:19:09.187Z,5.60
2024-01-20T16:21:39.306Z,6.20
2024-01-20T16:24:06.464Z,6.50
2024-01-20T16:26:33.405Z,6.40
2024-01-20T16:29:03.251Z,5.70
2024-01-20T16:31:33.365Z,7.57
2024-01-20T16:34:00.402Z,7.03
2024-01-20T16:36:27.692Z,7.67
2024-01-20T16:38:54.728Z,11.27
2024-01-20T16:41:21.893Z,10.00
2024-01-20T16:43:48.731Z,12.50
2024-01-20T16:46:19.863Z,11.10
2024-01-20T16:48:46.990Z,13.77
2024-01-20T16:51:22.321Z,10.70
2024-01-20T16:53:54.943Z,12.00
2024-01-20T16:56:25.469Z,11.57
2024-01-20T16:58:55.217Z,22.57
2024-01-20T17:01:22.221Z,12.97
2024-01-20T17:03:49.345Z,8.73
2024-01-20T17:06:20.741Z,10.57
2024-01-20T17:08:48.657Z,8.90
2024-01-20T17:11:15.692Z,9.97
2024-01-20T17:13:45.008Z,10.27
2024-01-20T17:16:12.026Z,7.97
2024-01-20T17:18:39.185Z,8.80
2024-01-20T17:21:06.775Z,7.50
2024-01-20T17:23:37.094Z,11.13
2024-01-20T17:26:06.894Z,12.07
2024-01-20T17:28:35.361Z,13.37
2024-01-20T17:31:02.822Z,14.37
2024-01-20T17:33:30.530Z,12.30
2024-01-20T17:35:58.178Z,10.00
2024-01-20T17:38:25.177Z,8.43
2024-01-20T17:40:52.185Z,8.23
2024-01-20T17:43:19.254Z,10.70
2024-01-20T17:45:50.406Z,10.93
2024-01-20T17:48:17.940Z,9.23
2024-01-20T17:53:17.151Z,7.50
2024-01-20T17:55:46.225Z,7.03
2024-01-20T17:58:13.287Z,6.47
2024-01-20T18:00:43.407Z,8.83
2024-01-20T18:03:11.027Z,7.67
2024-01-20T18:05:40.804Z,7.53
2024-01-20T18:08:07.821Z,6.57
2024-01-20T18:10:35.001Z,7.10
2024-01-20T18:13:06.771Z,8.07
2024-01-20T18:15:34.172Z,6.10
2024-01-20T18:18:02.926Z,5.37
2024-01-20T18:20:29.945Z,6.50
2024-01-20T18:22:56.948Z,6.87
2024-01-20T18:25:24.332Z,6.63
2024-01-20T18:27:51.439Z,7.77
2024-01-20T18:30:19.832Z,6.63
2024-01-20T18:32:48.402Z,6.90
2024-01-20T18:35:15.355Z,5.20
2024-01-20T18:37:45.104Z,5.97
2024-01-20T18:40:14.135Z,8.83
2024-01-20T18:42:41.199Z,8.53
2024-01-20T18:45:13.277Z,9.17
2024-01-20T18:47:41.593Z,8.73
2024-01-20T18:50:12.562Z,8.30
2024-01-20T18:52:39.798Z,5.90
2024-01-20T18:55:06.823Z,5.47
2024-01-20T18:57:37.388Z,6.20
2024-01-20T19:00:07.970Z,5.27
2024-01-20T19:02:38.453Z,6.10
2024-01-20T19:05:08.322Z,7.97
2024-01-20T19:07:36.406Z,7.63
2024-01-20T19:10:04.292Z,8.77
2024-01-20T19:12:31.284Z,8.20
2024-01-20T19:15:01.013Z,9.23
2024-01-20T19:17:31.881Z,8.30
2024-01-20T19:19:58.876Z,7.63
2024-01-20T19:22:28.712Z,7.93
2024-01-20T19:25:04.308Z,6.40
2024-01-20T19:27:34.053Z,6.63
2024-01-20T19:30:00.993Z,6.37
2024-01-20T19:32:28.467Z,6.03
2024-01-20T19:34:55.462Z,5.57
2024-01-20T19:37:23.384Z,6.67
2024-01-20T19:39:52.294Z,6.03
2024-01-20T19:42:20.883Z,5.77
2024-01-20T19:44:49.559Z,5.43
2024-01-20T19:47:17.580Z,6.50
2024-01-20T19:49:44.563Z,6.67
2024-01-20T19:52:15.362Z,5.20
2024-01-20T19:54:47.528Z,5.70
2024-01-20T19:57:16.121Z,5.60
2024-01-20T19:59:43.143Z,5.40
2024-01-20T20:02:10.365Z,5.80
2024-01-20T20:04:40.673Z,6.00
2024-01-20T20:07:10.224Z,7.47
2024-01-20T20:09:39.735Z,7.67
2024-01-20T20:12:07.673Z,6.93
2024-01-20T20:14:34.810Z,6.23
2024-01-20T20:17:01.884Z,7.33
2024-01-20T20:19:33.088Z,6.63
2024-01-20T20:22:00.147Z,7.03
2024-01-20T20:24:27.169Z,8.07
2024-01-20T20:26:59.807Z,7.80
2024-01-20T20:29:28.802Z,7.70
2024-01-20T20:32:08.628Z,6.07
2024-01-20T20:34:38.163Z,6.70
2024-01-20T20:37:05.390Z,5.83
2024-01-20T20:39:36.685Z,6.90
2024-01-20T20:42:03.928Z,6.87
2024-01-20T20:44:33.810Z,5.60
2024-01-20T20:47:04.146Z,5.60
2024-01-20T20:49:31.898Z,6.47
2024-01-20T20:52:01.706Z,6.23
2024-01-20T20:54:28.760Z,4.87
2024-01-20T20:56:56.106Z,6.70
2024-01-20T20:59:26.171Z,5.07
2024-01-20T21:01:53.211Z,5.83
2024-01-20T21:04:21.182Z,4.70
2024-01-20T21:06:56.842Z,6.03
2024-01-20T21:09:24.412Z,6.47
2024-01-20T21:11:51.709Z,6.73
2024-01-20T21:14:22.313Z,5.80
2024-01-20T21:16:49.310Z,5.47
2024-01-20T21:19:20.289Z,7.07
2024-01-20T21:21:49.202Z,7.87
2024-01-20T21:24:20.371Z,6.40
2024-01-20T21:26:47.299Z,5.80
2024-01-20T21:29:15.392Z,7.10
2024-01-20T21:31:46.118Z,6.30
2024-01-20T21:34:14.350Z,6.57
2024-01-20T21:36:41.490Z,6.73
2024-01-20T21:39:13.147Z,6.67
2024-01-20T21:41:44.833Z,7.00
2024-01-20T21:44:11.838Z,8.27
2024-01-20T21:46:40.503Z,7.63
2024-01-20T21:49:07.533Z,7.90
2024-01-20T21:51:34.820Z,9.23
2024-01-20T21:54:01.935Z,14.07
2024-01-20T21:56:28.852Z,13.63
2024-01-20T21:58:55.845Z,11.17
2024-01-20T22:01:23.518Z,11.33
2024-01-20T22:03:50.700Z,9.13
2024-01-20T22:06:17.905Z,9.60
2024-01-20T22:08:45.310Z,9.97
2024-01-20T22:11:12.688Z,6.73
2024-01-20T22:13:39.773Z,7.50
2024-01-20T22:16:07.320Z,6.73
2024-01-20T22:18:34.517Z,6.97
2024-01-20T22:21:04.090Z,6.30
2024-01-20T22:23:35.960Z,6.83
2024-01-20T22:26:02.962Z,6.73
2024-01-20T22:28:29.960Z,6.20
2024-01-20T22:30:58.174Z,6.90
2024-01-20T22:33:28.662Z,7.37
2024-01-20T22:35:55.832Z,6.10
2024-01-20T22:38:25.967Z,5.33
2024-01-20T22:40:55.162Z,5.57
2024-01-20T22:43:22.203Z,7.63
2024-01-20T22:45:52.208Z,5.93
2024-01-20T22:48:19.637Z,6.37
2024-01-20T22:50:46.981Z,5.97
2024-01-20T22:53:14.135Z,5.57
2024-01-20T22:55:43.225Z,6.63
2024-01-20T22:58:12.755Z,6.53
2024-01-20T23:00:40.398Z,6.00
2024-01-20T23:03:07.624Z,5.63
2024-01-20T23:05:39.171Z,5.93
2024-01-20T23:08:06.860Z,5.47
2024-01-20T23:10:33.829Z,5.53
2024-01-20T23:13:01.245Z,4.80
2024-01-20T23:15:28.202Z,7.27
2024-01-20T23:17:55.244Z,6.53
2024-01-20T23:20:22.358Z,5.53
2024-01-20T23:22:49.335Z,5.37
2024-01-20T23:25:16.299Z,6.50
2024-01-20T23:27:46.914Z,6.43
2024-01-20T23:30:15.274Z,5.90
2024-01-20T23:32:43.699Z,6.67
2024-01-20T23:35:11.456Z,5.30
2024-01-20T23:37:39.386Z,6.47
2024-01-20T23:40:06.764Z,5.70
2024-01-20T23:42:39.247Z,6.47
2024-01-20T23:45:06.817Z,6.73
2024-01-20T23:47:33.823Z,5.67
2024-01-20T23:50:04.113Z,6.57
2024-01-20T23:52:35.547Z,6.50
2024-01-20T23:55:03.325Z,5.57
2024-01-20T23:57:30.418Z,6.23
2024-01-20T23:59:57.321Z,8.03
